sensor_id;sensor_type;location;lat;lon;timestamp;temperature;humidity
67603;DHT22;54417;47.454;18.918;2023-03-01T00:04:17;4.40;72.50
67603;DHT22;54417;47.454;18.918;2023-03-01T00:09:42;4.43;71.94
67603;DHT22;54417;47.454;18.918;2023-03-01T00:15:08;4.42;72.69
67603;DHT22;54417;47.454;18.918;2023-03-01T00:20:32;4.40;72.23
67603;DHT22;54417;47.454;18.918;2023-03-01T00:25:57;4.36;72.62
67603;DHT22;54417;47.454;18.918;2023-03-01T00:31:25;4.33;73.57
67603;DHT22;54417;47.454;18.918;2023-03-01T00:36:49;4.33;73.32
67603;DHT22;54417;47.454;18.918;2023-03-01T00:42:14;4.40;73.69
67603;DHT22;54417;47.454;18.918;2023-03-01T00:47:38;4.36;73.72
67603;DHT22;54417;47.454;18.918;2023-03-01T00:53:02;4.38;73.52
67603;DHT22;54417;47.454;18.918;2023-03-01T00:58:29;4.36;72.79
67603;DHT22;54417;47.454;18.918;2023-03-01T01:03:54;4.42;72.64
67603;DHT22;54417;47.454;18.918;2023-03-01T01:09:19;4.31;71.19
67603;DHT22;54417;47.454;18.918;2023-03-01T01:14:44;4.33;70.73
67603;DHT22;54417;47.454;18.918;2023-03-01T01:20:09;4.25;71.50
67603;DHT22;54417;47.454;18.918;2023-03-01T01:25:35;4.29;71.76
67603;DHT22;54417;47.454;18.918;2023-03-01T01:31:00;4.32;71.20
67603;DHT22;54417;47.454;18.918;2023-03-01T01:36:24;4.35;71.52
67603;DHT22;54417;47.454;18.918;2023-03-01T01:41:48;4.21;71.82
67603;DHT22;54417;47.454;18.918;2023-03-01T01:47:17;4.18;71.94
67603;DHT22;54417;47.454;18.918;2023-03-01T01:52:42;4.16;72.23
67603;DHT22;54417;47.454;18.918;2023-03-01T01:58:08;4.19;71.92
67603;DHT22;54417;47.454;18.918;2023-03-01T02:03:34;4.15;72.09
67603;DHT22;54417;47.454;18.918;2023-03-01T02:09:05;4.19;72.16
67603;DHT22;54417;47.454;18.918;2023-03-01T02:14:30;4.15;71.77
67603;DHT22;54417;47.454;18.918;2023-03-01T02:20:04;4.18;71.42
67603;DHT22;54417;47.454;18.918;2023-03-01T02:25:39;4.13;71.71
67603;DHT22;54417;47.454;18.918;2023-03-01T02:31:07;4.16;72.05
67603;DHT22;54417;47.454;18.918;2023-03-01T02:36:51;4.12;72.09
67603;DHT22;54417;47.454;18.918;2023-03-01T02:42:21;4.12;71.89
67603;DHT22;54417;47.454;18.918;2023-03-01T02:47:50;4.21;71.94
67603;DHT22;54417;47.454;18.918;2023-03-01T02:53:17;4.13;72.05
67603;DHT22;54417;47.454;18.918;2023-03-01T02:58:45;4.15;72.32
67603;DHT22;54417;47.454;18.918;2023-03-01T03:04:17;4.22;72.21
67603;DHT22;54417;47.454;18.918;2023-03-01T03:09:43;4.16;72.50
67603;DHT22;54417;47.454;18.918;2023-03-01T03:15:09;4.11;72.78
67603;DHT22;54417;47.454;18.918;2023-03-01T03:20:37;4.09;73.01
67603;DHT22;54417;47.454;18.918;2023-03-01T03:26:03;4.08;73.10
67603;DHT22;54417;47.454;18.918;2023-03-01T03:31:27;4.12;73.25
67603;DHT22;54417;47.454;18.918;2023-03-01T03:36:54;4.09;73.44
67603;DHT22;54417;47.454;18.918;2023-03-01T03:42:21;4.12;73.63
67603;DHT22;54417;47.454;18.918;2023-03-01T03:47:45;4.13;73.67
67603;DHT22;54417;47.454;18.918;2023-03-01T03:53:11;4.15;73.50
67603;DHT22;54417;47.454;18.918;2023-03-01T03:58:36;4.18;73.36
67603;DHT22;54417;47.454;18.918;2023-03-01T04:03:59;4.32;73.37
67603;DHT22;54417;47.454;18.918;2023-03-01T04:09:28;4.19;73.42
67603;DHT22;54417;47.454;18.918;2023-03-01T04:14:52;3.98;74.31
67603;DHT22;54417;47.454;18.918;2023-03-01T04:20:18;4.02;74.12
67603;DHT22;54417;47.454;18.918;2023-03-01T04:25:50;4.11;73.75
67603;DHT22;54417;47.454;18.918;2023-03-01T04:31:18;4.08;73.83
67603;DHT22;54417;47.454;18.918;2023-03-01T04:36:44;4.18;73.50
67603;DHT22;54417;47.454;18.918;2023-03-01T04:42:09;4.03;73.97
67603;DHT22;54417;47.454;18.918;2023-03-01T04:47:33;4.21;73.19
67603;DHT22;54417;47.454;18.918;2023-03-01T04:53:00;4.02;73.11
67603;DHT22;54417;47.454;18.918;2023-03-01T04:58:26;4.06;73.32
67603;DHT22;54417;47.454;18.918;2023-03-01T05:03:51;4.08;72.87
67603;DHT22;54417;47.454;18.918;2023-03-01T05:09:15;4.06;72.90
67603;DHT22;54417;47.454;18.918;2023-03-01T05:14:40;4.16;72.80
67603;DHT22;54417;47.454;18.918;2023-03-01T05:20:05;4.15;72.72
67603;DHT22;54417;47.454;18.918;2023-03-01T05:25:32;4.22;72.80
67603;DHT22;54417;47.454;18.918;2023-03-01T05:30:57;4.22;72.84
67603;DHT22;54417;47.454;18.918;2023-03-01T05:36:21;4.23;72.74
67603;DHT22;54417;47.454;18.918;2023-03-01T05:41:45;4.21;72.72
67603;DHT22;54417;47.454;18.918;2023-03-01T05:47:10;4.15;73.39
67603;DHT22;54417;47.454;18.918;2023-03-01T05:52:34;4.22;73.28
67603;DHT22;54417;47.454;18.918;2023-03-01T05:57:59;4.28;73.27
67603;DHT22;54417;47.454;18.918;2023-03-01T06:03:25;4.25;73.21
67603;DHT22;54417;47.454;18.918;2023-03-01T06:08:49;4.33;73.15
67603;DHT22;54417;47.454;18.918;2023-03-01T06:14:13;4.43;73.13
67603;DHT22;54417;47.454;18.918;2023-03-01T06:19:38;4.45;72.78
67603;DHT22;54417;47.454;18.918;2023-03-01T06:25:03;4.53;72.64
67603;DHT22;54417;47.454;18.918;2023-03-01T06:30:27;4.77;72.11
67603;DHT22;54417;47.454;18.918;2023-03-01T06:35:54;4.95;71.89
67603;DHT22;54417;47.454;18.918;2023-03-01T06:41:18;5.09;71.35
67603;DHT22;54417;47.454;18.918;2023-03-01T06:46:41;5.08;71.20
67603;DHT22;54417;47.454;18.918;2023-03-01T06:52:08;5.12;71.47
67603;DHT22;54417;47.454;18.918;2023-03-01T06:57:32;5.24;71.45
67603;DHT22;54417;47.454;18.918;2023-03-01T07:02:58;5.22;70.61
67603;DHT22;54417;47.454;18.918;2023-03-01T07:08:24;5.21;69.82
67603;DHT22;54417;47.454;18.918;2023-03-01T07:13:48;5.34;69.26
67603;DHT22;54417;47.454;18.918;2023-03-01T07:19:11;5.48;68.56
67603;DHT22;54417;47.454;18.918;2023-03-01T07:24:37;5.53;68.55
67603;DHT22;54417;47.454;18.918;2023-03-01T07:30:00;5.77;67.17
67603;DHT22;54417;47.454;18.918;2023-03-01T07:35:25;5.89;67.89
67603;DHT22;54417;47.454;18.918;2023-03-01T07:40:50;5.96;67.04
67603;DHT22;54417;47.454;18.918;2023-03-01T07:46:14;6.35;66.42
67603;DHT22;54417;47.454;18.918;2023-03-01T07:51:38;6.48;65.14
67603;DHT22;54417;47.454;18.918;2023-03-01T07:57:03;6.71;65.14
67603;DHT22;54417;47.454;18.918;2023-03-01T08:02:27;7.04;63.80
67603;DHT22;54417;47.454;18.918;2023-03-01T08:07:51;7.18;62.84
67603;DHT22;54417;47.454;18.918;2023-03-01T08:13:17;7.45;62.57
67603;DHT22;54417;47.454;18.918;2023-03-01T08:18:44;7.14;63.50
67603;DHT22;54417;47.454;18.918;2023-03-01T08:24:08;7.17;61.95
67603;DHT22;54417;47.454;18.918;2023-03-01T08:29:34;7.54;61.03
67603;DHT22;54417;47.454;18.918;2023-03-01T08:34:58;7.54;60.62
67603;DHT22;54417;47.454;18.918;2023-03-01T08:40:22;8.00;61.09
67603;DHT22;54417;47.454;18.918;2023-03-01T08:45:48;8.37;60.40
67603;DHT22;54417;47.454;18.918;2023-03-01T08:51:13;8.61;60.07
67603;DHT22;54417;47.454;18.918;2023-03-01T08:56:39;8.73;59.39
67603;DHT22;54417;47.454;18.918;2023-03-01T09:02:04;8.93;58.64
67603;DHT22;54417;47.454;18.918;2023-03-01T09:07:28;8.90;57.74
67603;DHT22;54417;47.454;18.918;2023-03-01T09:12:52;8.90;58.59
67603;DHT22;54417;47.454;18.918;2023-03-01T09:18:17;8.86;59.38
67603;DHT22;54417;47.454;18.918;2023-03-01T09:23:42;9.18;57.09
67603;DHT22;54417;47.454;18.918;2023-03-01T09:29:06;9.23;57.58
67603;DHT22;54417;47.454;18.918;2023-03-01T09:34:33;9.23;56.65
67603;DHT22;54417;47.454;18.918;2023-03-01T09:40:20;9.27;58.42
67603;DHT22;54417;47.454;18.918;2023-03-01T09:45:45;9.48;57.67
67603;DHT22;54417;47.454;18.918;2023-03-01T09:51:18;9.26;57.62
67603;DHT22;54417;47.454;18.918;2023-03-01T09:56:47;8.83;58.39
67603;DHT22;54417;47.454;18.918;2023-03-01T10:02:25;9.20;58.13
67603;DHT22;54417;47.454;18.918;2023-03-01T10:08:00;9.78;58.25
67603;DHT22;54417;47.454;18.918;2023-03-01T10:13:31;10.25;56.04
67603;DHT22;54417;47.454;18.918;2023-03-01T10:19:00;10.32;54.78
67603;DHT22;54417;47.454;18.918;2023-03-01T10:24:29;10.36;54.71
67603;DHT22;54417;47.454;18.918;2023-03-01T10:30:01;10.28;54.70
67603;DHT22;54417;47.454;18.918;2023-03-01T10:35:28;10.02;56.61
67603;DHT22;54417;47.454;18.918;2023-03-01T10:40:56;10.10;56.33
67603;DHT22;54417;47.454;18.918;2023-03-01T10:46:25;10.10;55.84
67603;DHT22;54417;47.454;18.918;2023-03-01T10:51:51;10.13;56.41
67603;DHT22;54417;47.454;18.918;2023-03-01T10:57:28;10.16;56.32
67603;DHT22;54417;47.454;18.918;2023-03-01T11:03:10;10.28;56.61
67603;DHT22;54417;47.454;18.918;2023-03-01T11:08:40;10.70;55.67
67603;DHT22;54417;47.454;18.918;2023-03-01T11:14:12;11.38;54.52
67603;DHT22;54417;47.454;18.918;2023-03-01T11:20:00;11.89;52.40
67603;DHT22;54417;47.454;18.918;2023-03-01T11:25:26;11.59;51.34
67603;DHT22;54417;47.454;18.918;2023-03-01T11:30:55;11.04;52.40
67603;DHT22;54417;47.454;18.918;2023-03-01T11:36:34;11.15;52.84
67603;DHT22;54417;47.454;18.918;2023-03-01T11:42:05;11.05;52.93
67603;DHT22;54417;47.454;18.918;2023-03-01T11:47:50;11.04;52.32
67603;DHT22;54417;47.454;18.918;2023-03-01T11:53:36;11.80;51.55
67603;DHT22;54417;47.454;18.918;2023-03-01T11:59:21;12.34;50.68
67603;DHT22;54417;47.454;18.918;2023-03-01T12:11:10;12.29;51.51
67603;DHT22;54417;47.454;18.918;2023-03-01T12:17:04;12.38;50.49
67603;DHT22;54417;47.454;18.918;2023-03-01T12:22:34;12.55;49.96
67603;DHT22;54417;47.454;18.918;2023-03-01T12:28:21;12.69;49.39
67603;DHT22;54417;47.454;18.918;2023-03-01T12:33:54;12.14;50.56
67603;DHT22;54417;47.454;18.918;2023-03-01T12:39:38;12.27;50.16
67603;DHT22;54417;47.454;18.918;2023-03-01T12:45:34;12.59;49.85
67603;DHT22;54417;47.454;18.918;2023-03-01T12:51:03;12.68;51.13
67603;DHT22;54417;47.454;18.918;2023-03-01T12:56:32;12.22;50.03
67603;DHT22;54417;47.454;18.918;2023-03-01T13:02:06;12.08;50.75
67603;DHT22;54417;47.454;18.918;2023-03-01T13:07:37;12.46;52.07
67603;DHT22;54417;47.454;18.918;2023-03-01T13:13:13;12.60;49.65
67603;DHT22;54417;47.454;18.918;2023-03-01T13:18:38;12.79;49.45
67603;DHT22;54417;47.454;18.918;2023-03-01T13:24:03;12.68;50.49
67603;DHT22;54417;47.454;18.918;2023-03-01T13:29:27;12.68;51.25
67603;DHT22;54417;47.454;18.918;2023-03-01T13:34:54;12.75;49.79
67603;DHT22;54417;47.454;18.918;2023-03-01T13:40:56;12.32;50.96
67603;DHT22;54417;47.454;18.918;2023-03-01T13:46:21;11.53;52.44
67603;DHT22;54417;47.454;18.918;2023-03-01T13:51:48;11.33;52.51
67603;DHT22;54417;47.454;18.918;2023-03-01T13:57:22;11.35;53.23
67603;DHT22;54417;47.454;18.918;2023-03-01T14:02:59;11.40;52.96
67603;DHT22;54417;47.454;18.918;2023-03-01T14:08:30;11.38;52.68
67603;DHT22;54417;47.454;18.918;2023-03-01T14:14:18;11.33;53.73
67603;DHT22;54417;47.454;18.918;2023-03-01T14:19:48;11.19;54.35
67603;DHT22;54417;47.454;18.918;2023-03-01T14:25:24;11.25;54.19
67603;DHT22;54417;47.454;18.918;2023-03-01T14:30:50;11.18;54.18
67603;DHT22;54417;47.454;18.918;2023-03-01T14:36:14;11.11;54.01
67603;DHT22;54417;47.454;18.918;2023-03-01T14:41:40;11.14;54.51
67603;DHT22;54417;47.454;18.918;2023-03-01T14:47:04;11.19;54.90
67603;DHT22;54417;47.454;18.918;2023-03-01T14:52:34;11.05;54.93
67603;DHT22;54417;47.454;18.918;2023-03-01T14:57:59;10.97;55.07
67603;DHT22;54417;47.454;18.918;2023-03-01T15:03:30;11.02;55.38
67603;DHT22;54417;47.454;18.918;2023-03-01T15:08:55;10.81;55.57
67603;DHT22;54417;47.454;18.918;2023-03-01T15:14:36;10.75;55.71
67603;DHT22;54417;47.454;18.918;2023-03-01T15:20:04;10.61;56.24
67603;DHT22;54417;47.454;18.918;2023-03-01T15:25:30;10.47;56.44
67603;DHT22;54417;47.454;18.918;2023-03-01T15:30:58;10.40;57.74
67603;DHT22;54417;47.454;18.918;2023-03-01T15:36:33;10.37;57.66
67603;DHT22;54417;47.454;18.918;2023-03-01T15:41:57;10.15;57.74
67603;DHT22;54417;47.454;18.918;2023-03-01T15:47:25;9.95;59.30
67603;DHT22;54417;47.454;18.918;2023-03-01T15:52:51;9.79;59.54
67603;DHT22;54417;47.454;18.918;2023-03-01T15:58:17;9.67;59.86
67603;DHT22;54417;47.454;18.918;2023-03-01T16:03:43;9.47;61.19
67603;DHT22;54417;47.454;18.918;2023-03-01T16:09:07;9.39;60.98
67603;DHT22;54417;47.454;18.918;2023-03-01T16:14:31;9.03;62.38
67603;DHT22;54417;47.454;18.918;2023-03-01T16:19:56;8.41;65.57
67603;DHT22;54417;47.454;18.918;2023-03-01T16:25:21;7.94;67.78
67603;DHT22;54417;47.454;18.918;2023-03-01T16:30:46;7.51;69.32
67603;DHT22;54417;47.454;18.918;2023-03-01T16:36:12;7.10;70.72
67603;DHT22;54417;47.454;18.918;2023-03-01T16:41:36;6.79;72.41
67603;DHT22;54417;47.454;18.918;2023-03-01T16:47:00;6.53;73.13
67603;DHT22;54417;47.454;18.918;2023-03-01T16:52:26;6.46;73.19
67603;DHT22;54417;47.454;18.918;2023-03-01T16:57:50;6.22;74.08
67603;DHT22;54417;47.454;18.918;2023-03-01T17:03:13;5.81;75.60
67603;DHT22;54417;47.454;18.918;2023-03-01T17:08:41;5.45;77.09
67603;DHT22;54417;47.454;18.918;2023-03-01T17:14:04;5.40;76.57
67603;DHT22;54417;47.454;18.918;2023-03-01T17:19:28;5.19;77.25
67603;DHT22;54417;47.454;18.918;2023-03-01T17:24:55;5.11;77.58
67603;DHT22;54417;47.454;18.918;2023-03-01T17:30:19;4.90;78.34
67603;DHT22;54417;47.454;18.918;2023-03-01T17:35:43;4.61;79.43
67603;DHT22;54417;47.454;18.918;2023-03-01T17:41:10;4.45;79.56
67603;DHT22;54417;47.454;18.918;2023-03-01T17:46:34;4.19;79.91
67603;DHT22;54417;47.454;18.918;2023-03-01T17:51:58;4.03;80.40
67603;DHT22;54417;47.454;18.918;2023-03-01T17:57:23;3.87;81.34
67603;DHT22;54417;47.454;18.918;2023-03-01T18:02:47;3.73;81.20
67603;DHT22;54417;47.454;18.918;2023-03-01T18:08:11;3.75;81.12
67603;DHT22;54417;47.454;18.918;2023-03-01T18:13:36;3.59;81.14
67603;DHT22;54417;47.454;18.918;2023-03-01T18:19:01;3.34;82.04
67603;DHT22;54417;47.454;18.918;2023-03-01T18:24:25;3.09;82.49
67603;DHT22;54417;47.454;18.918;2023-03-01T18:29:51;2.94;82.96
67603;DHT22;54417;47.454;18.918;2023-03-01T18:35:15;2.87;83.17
67603;DHT22;54417;47.454;18.918;2023-03-01T18:40:41;2.68;83.61
67603;DHT22;54417;47.454;18.918;2023-03-01T18:46:06;2.54;83.32
67603;DHT22;54417;47.454;18.918;2023-03-01T18:51:30;2.50;83.63
67603;DHT22;54417;47.454;18.918;2023-03-01T18:56:54;2.38;83.84
67603;DHT22;54417;47.454;18.918;2023-03-01T19:02:20;2.20;84.10
67603;DHT22;54417;47.454;18.918;2023-03-01T19:07:43;2.05;84.71
67603;DHT22;54417;47.454;18.918;2023-03-01T19:13:07;1.98;84.62
67603;DHT22;54417;47.454;18.918;2023-03-01T19:18:33;1.94;84.37
67603;DHT22;54417;47.454;18.918;2023-03-01T19:23:57;1.68;85.30
67603;DHT22;54417;47.454;18.918;2023-03-01T19:29:23;1.59;85.62
67603;DHT22;54417;47.454;18.918;2023-03-01T19:34:49;1.52;85.35
67603;DHT22;54417;47.454;18.918;2023-03-01T19:40:12;1.43;85.56
67603;DHT22;54417;47.454;18.918;2023-03-01T19:45:36;1.34;85.82
67603;DHT22;54417;47.454;18.918;2023-03-01T19:51:02;1.26;86.16
67603;DHT22;54417;47.454;18.918;2023-03-01T19:56:25;1.15;86.15
67603;DHT22;54417;47.454;18.918;2023-03-01T20:01:49;1.06;86.47
67603;DHT22;54417;47.454;18.918;2023-03-01T20:07:15;0.96;86.78
67603;DHT22;54417;47.454;18.918;2023-03-01T20:12:40;0.85;86.92
67603;DHT22;54417;47.454;18.918;2023-03-01T20:18:04;0.80;87.03
67603;DHT22;54417;47.454;18.918;2023-03-01T20:23:29;0.82;87.05
67603;DHT22;54417;47.454;18.918;2023-03-01T20:28:55;0.90;86.40
67603;DHT22;54417;47.454;18.918;2023-03-01T20:34:20;0.80;86.38
67603;DHT22;54417;47.454;18.918;2023-03-01T20:39:45;0.72;85.57
67603;DHT22;54417;47.454;18.918;2023-03-01T20:45:09;0.65;85.91
67603;DHT22;54417;47.454;18.918;2023-03-01T20:50:33;0.64;85.62
67603;DHT22;54417;47.454;18.918;2023-03-01T20:56:02;0.55;85.84
67603;DHT22;54417;47.454;18.918;2023-03-01T21:01:26;0.45;86.41
67603;DHT22;54417;47.454;18.918;2023-03-01T21:06:50;0.36;86.65
67603;DHT22;54417;47.454;18.918;2023-03-01T21:12:17;0.41;86.25
67603;DHT22;54417;47.454;18.918;2023-03-01T21:17:42;0.20;86.74
67603;DHT22;54417;47.454;18.918;2023-03-01T21:23:05;0.13;87.03
67603;DHT22;54417;47.454;18.918;2023-03-01T21:28:31;-0.04;87.82
67603;DHT22;54417;47.454;18.918;2023-03-01T21:33:57;-0.10;87.35
67603;DHT22;54417;47.454;18.918;2023-03-01T21:39:21;-0.06;87.09
67603;DHT22;54417;47.454;18.918;2023-03-01T21:44:51;-0.07;87.12
67603;DHT22;54417;47.454;18.918;2023-03-01T21:50:15;-0.14;86.97
67603;DHT22;54417;47.454;18.918;2023-03-01T21:55:46;-0.39;87.72
67603;DHT22;54417;47.454;18.918;2023-03-01T22:01:12;-0.55;88.39
67603;DHT22;54417;47.454;18.918;2023-03-01T22:06:38;-0.47;88.74
67603;DHT22;54417;47.454;18.918;2023-03-01T22:12:04;-0.52;88.46
67603;DHT22;54417;47.454;18.918;2023-03-01T22:17:29;-0.66;88.81
67603;DHT22;54417;47.454;18.918;2023-03-01T22:22:53;-0.70;89.38
67603;DHT22;54417;47.454;18.918;2023-03-01T22:28:16;-0.68;89.85
67603;DHT22;54417;47.454;18.918;2023-03-01T22:33:43;-0.69;89.22
67603;DHT22;54417;47.454;18.918;2023-03-01T22:39:06;-0.86;89.21
67603;DHT22;54417;47.454;18.918;2023-03-01T22:44:31;-1.00;89.37
67603;DHT22;54417;47.454;18.918;2023-03-01T22:49:56;-1.01;89.24
67603;DHT22;54417;47.454;18.918;2023-03-01T22:55:20;-1.18;89.32
67603;DHT22;54417;47.454;18.918;2023-03-01T23:00:44;-1.23;89.14
67603;DHT22;54417;47.454;18.918;2023-03-01T23:06:10;-1.31;89.56
67603;DHT22;54417;47.454;18.918;2023-03-01T23:11:34;-1.24;89.78
67603;DHT22;54417;47.454;18.918;2023-03-01T23:16:58;-1.28;89.52
67603;DHT22;54417;47.454;18.918;2023-03-01T23:22:24;-1.41;89.58
67603;DHT22;54417;47.454;18.918;2023-03-01T23:27:48;-1.45;90.15
67603;DHT22;54417;47.454;18.918;2023-03-01T23:33:11;-1.48;90.00
67603;DHT22;54417;47.454;18.918;2023-03-01T23:38:37;-1.62;89.48
67603;DHT22;54417;47.454;18.918;2023-03-01T23:44:01;-1.56;90.42
67603;DHT22;54417;47.454;18.918;2023-03-01T23:49:26;-1.45;90.14
67603;DHT22;54417;47.454;18.918;2023-03-01T23:54:51;-1.27;89.42
